Terminal Aerodrome Forecast
Issued by NWS Grand Rapids, MI

Home | Current Version | Previous Version | Text Only | Print | Product List | Glossary On
Versions: 1 2 3 4 5 6 7 8 9 10 11 12 13 14 15 16
433
FTUS43 KGRR 171147
TAFGRR
TAF
KGRR 171147Z 1712/1812 15010KT P6SM VCSH BKN050
     FM171500 18012KT P6SM -SHRA OVC025
      TEMPO 1715/1718 4SM TSRA BR OVC015CB
     FM171900 24016G24KT P6SM BKN050
     FM180100 24011KT P6SM BKN050
     FM180500 25010KT P6SM VCSH OVC025
     FM180800 26010KT P6SM VCSH OVC015=

USA.gov is the U.S. government's official web portal to all federal, state and local government web resources and services.